sensor_id;sensor_type;location;lat;lon;timestamp;P1;durP1;ratioP1;P2;durP2;ratioP2
33987;SDS011;37428;53.580;-1.666;2022-12-10T00:00:28;35.83;;;15.93;;
33987;SDS011;37428;53.580;-1.666;2022-12-10T00:03:43;26.25;;;14.57;;
33987;SDS011;37428;53.580;-1.666;2022-12-10T00:07:07;38.97;;;17.27;;
33987;SDS011;37428;53.580;-1.666;2022-12-10T00:10:09;32.65;;;16.48;;
33987;SDS011;37428;53.580;-1.666;2022-12-10T00:13:14;32.17;;;17.02;;
33987;SDS011;37428;53.580;-1.666;2022-12-10T00:16:23;32.30;;;14.93;;
33987;SDS011;37428;53.580;-1.666;2022-12-10T00:19:53;29.05;;;15.02;;
33987;SDS011;37428;53.580;-1.666;2022-12-10T00:23:03;33.42;;;14.85;;
33987;SDS011;37428;53.580;-1.666;2022-12-10T00:26:16;35.10;;;15.65;;
33987;SDS011;37428;53.580;-1.666;2022-12-10T00:29:20;31.15;;;14.95;;
33987;SDS011;37428;53.580;-1.666;2022-12-10T00:32:24;26.20;;;12.82;;
33987;SDS011;37428;53.580;-1.666;2022-12-10T00:35:36;31.98;;;14.52;;
33987;SDS011;37428;53.580;-1.666;2022-12-10T00:38:47;38.90;;;16.23;;
33987;SDS011;37428;53.580;-1.666;2022-12-10T00:41:55;35.75;;;16.10;;
33987;SDS011;37428;53.580;-1.666;2022-12-10T00:44:57;28.63;;;14.45;;
33987;SDS011;37428;53.580;-1.666;2022-12-10T00:47:59;24.17;;;12.93;;
33987;SDS011;37428;53.580;-1.666;2022-12-10T00:51:04;23.75;;;12.70;;
33987;SDS011;37428;53.580;-1.666;2022-12-10T00:54:24;19.48;;;10.88;;
33987;SDS011;37428;53.580;-1.666;2022-12-10T00:57:26;20.17;;;12.13;;
33987;SDS011;37428;53.580;-1.666;2022-12-10T01:00:28;21.42;;;11.88;;
33987;SDS011;37428;53.580;-1.666;2022-12-10T01:03:35;21.60;;;11.38;;
33987;SDS011;37428;53.580;-1.666;2022-12-10T01:10:05;18.92;;;11.85;;
33987;SDS011;37428;53.580;-1.666;2022-12-10T01:13:08;18.67;;;11.52;;
33987;SDS011;37428;53.580;-1.666;2022-12-10T01:16:13;16.42;;;11.20;;
33987;SDS011;37428;53.580;-1.666;2022-12-10T01:19:18;24.65;;;13.25;;
33987;SDS011;37428;53.580;-1.666;2022-12-10T01:25:24;20.88;;;13.07;;
33987;SDS011;37428;53.580;-1.666;2022-12-10T01:28:27;19.27;;;12.98;;
33987;SDS011;37428;53.580;-1.666;2022-12-10T01:31:34;24.65;;;14.55;;
33987;SDS011;37428;53.580;-1.666;2022-12-10T01:38:15;26.83;;;15.32;;
33987;SDS011;37428;53.580;-1.666;2022-12-10T01:41:21;28.75;;;16.60;;
33987;SDS011;37428;53.580;-1.666;2022-12-10T01:48:13;36.85;;;17.50;;
33987;SDS011;37428;53.580;-1.666;2022-12-10T01:51:32;37.57;;;17.53;;
33987;SDS011;37428;53.580;-1.666;2022-12-10T01:54:42;33.67;;;18.63;;
33987;SDS011;37428;53.580;-1.666;2022-12-10T01:57:46;26.67;;;15.43;;
33987;SDS011;37428;53.580;-1.666;2022-12-10T02:01:01;28.02;;;15.82;;
33987;SDS011;37428;53.580;-1.666;2022-12-10T02:04:11;27.33;;;15.50;;
33987;SDS011;37428;53.580;-1.666;2022-12-10T02:07:43;28.38;;;16.42;;
33987;SDS011;37428;53.580;-1.666;2022-12-10T02:11:02;29.13;;;15.13;;
33987;SDS011;37428;53.580;-1.666;2022-12-10T02:14:23;26.45;;;16.55;;
33987;SDS011;37428;53.580;-1.666;2022-12-10T02:17:40;36.08;;;17.75;;
33987;SDS011;37428;53.580;-1.666;2022-12-10T02:20:49;30.75;;;17.90;;
33987;SDS011;37428;53.580;-1.666;2022-12-10T02:23:58;28.63;;;15.55;;
33987;SDS011;37428;53.580;-1.666;2022-12-10T02:27:06;27.27;;;15.80;;
33987;SDS011;37428;53.580;-1.666;2022-12-10T02:30:16;25.08;;;14.48;;
33987;SDS011;37428;53.580;-1.666;2022-12-10T02:33:29;19.52;;;12.35;;
33987;SDS011;37428;53.580;-1.666;2022-12-10T02:36:37;23.90;;;12.98;;
33987;SDS011;37428;53.580;-1.666;2022-12-10T02:39:45;22.10;;;13.43;;
33987;SDS011;37428;53.580;-1.666;2022-12-10T02:43:03;21.17;;;13.27;;
33987;SDS011;37428;53.580;-1.666;2022-12-10T02:46:08;18.02;;;11.30;;
33987;SDS011;37428;53.580;-1.666;2022-12-10T02:49:11;19.52;;;12.43;;
33987;SDS011;37428;53.580;-1.666;2022-12-10T02:52:18;18.58;;;11.57;;
33987;SDS011;37428;53.580;-1.666;2022-12-10T02:55:21;22.92;;;12.20;;
33987;SDS011;37428;53.580;-1.666;2022-12-10T02:58:46;21.83;;;11.20;;
33987;SDS011;37428;53.580;-1.666;2022-12-10T03:01:59;22.02;;;11.90;;
33987;SDS011;37428;53.580;-1.666;2022-12-10T03:05:10;17.80;;;10.90;;
33987;SDS011;37428;53.580;-1.666;2022-12-10T03:08:17;21.67;;;11.60;;
33987;SDS011;37428;53.580;-1.666;2022-12-10T03:11:30;17.30;;;10.93;;
33987;SDS011;37428;53.580;-1.666;2022-12-10T03:14:37;18.60;;;11.05;;
33987;SDS011;37428;53.580;-1.666;2022-12-10T03:21:44;18.80;;;9.32;;
33987;SDS011;37428;53.580;-1.666;2022-12-10T03:24:48;17.10;;;8.73;;
33987;SDS011;37428;53.580;-1.666;2022-12-10T03:27:51;14.73;;;8.32;;
33987;SDS011;37428;53.580;-1.666;2022-12-10T03:30:57;8.90;;;6.65;;
33987;SDS011;37428;53.580;-1.666;2022-12-10T03:34:13;12.43;;;6.78;;
33987;SDS011;37428;53.580;-1.666;2022-12-10T03:37:28;15.98;;;7.70;;
33987;SDS011;37428;53.580;-1.666;2022-12-10T03:40:34;13.52;;;8.32;;
33987;SDS011;37428;53.580;-1.666;2022-12-10T03:43:48;16.95;;;8.75;;
33987;SDS011;37428;53.580;-1.666;2022-12-10T03:46:51;16.83;;;10.10;;
33987;SDS011;37428;53.580;-1.666;2022-12-10T03:49:56;15.02;;;9.90;;
33987;SDS011;37428;53.580;-1.666;2022-12-10T03:53:01;16.52;;;11.18;;
33987;SDS011;37428;53.580;-1.666;2022-12-10T03:56:06;11.05;;;8.35;;
33987;SDS011;37428;53.580;-1.666;2022-12-10T04:02:52;12.40;;;9.63;;
33987;SDS011;37428;53.580;-1.666;2022-12-10T04:06:00;9.10;;;7.05;;
33987;SDS011;37428;53.580;-1.666;2022-12-10T04:09:08;9.95;;;7.32;;
33987;SDS011;37428;53.580;-1.666;2022-12-10T04:12:32;9.30;;;6.95;;
33987;SDS011;37428;53.580;-1.666;2022-12-10T04:15:37;8.20;;;7.35;;
33987;SDS011;37428;53.580;-1.666;2022-12-10T04:18:58;11.50;;;7.18;;
33987;SDS011;37428;53.580;-1.666;2022-12-10T04:22:17;10.55;;;6.40;;
33987;SDS011;37428;53.580;-1.666;2022-12-10T04:25:38;9.43;;;6.70;;
33987;SDS011;37428;53.580;-1.666;2022-12-10T04:29:03;9.93;;;6.65;;
33987;SDS011;37428;53.580;-1.666;2022-12-10T04:32:06;7.82;;;6.30;;
33987;SDS011;37428;53.580;-1.666;2022-12-10T04:35:13;9.65;;;6.97;;
33987;SDS011;37428;53.580;-1.666;2022-12-10T04:38:22;7.82;;;6.97;;
33987;SDS011;37428;53.580;-1.666;2022-12-10T04:41:41;8.07;;;7.28;;
33987;SDS011;37428;53.580;-1.666;2022-12-10T04:45:01;9.27;;;6.32;;
33987;SDS011;37428;53.580;-1.666;2022-12-10T04:48:03;7.10;;;6.40;;
33987;SDS011;37428;53.580;-1.666;2022-12-10T04:51:06;9.32;;;7.43;;
33987;SDS011;37428;53.580;-1.666;2022-12-10T04:54:09;11.40;;;7.50;;
33987;SDS011;37428;53.580;-1.666;2022-12-10T04:57:17;8.88;;;8.05;;
33987;SDS011;37428;53.580;-1.666;2022-12-10T05:00:37;9.02;;;8.13;;
33987;SDS011;37428;53.580;-1.666;2022-12-10T05:04:00;10.23;;;7.97;;
33987;SDS011;37428;53.580;-1.666;2022-12-10T05:07:04;8.23;;;7.07;;
33987;SDS011;37428;53.580;-1.666;2022-12-10T05:10:08;10.10;;;8.93;;
33987;SDS011;37428;53.580;-1.666;2022-12-10T05:13:13;11.32;;;8.95;;
33987;SDS011;37428;53.580;-1.666;2022-12-10T05:16:28;10.65;;;8.15;;
33987;SDS011;37428;53.580;-1.666;2022-12-10T05:19:31;8.75;;;7.35;;
33987;SDS011;37428;53.580;-1.666;2022-12-10T05:22:38;8.57;;;7.57;;
33987;SDS011;37428;53.580;-1.666;2022-12-10T05:26:03;16.15;;;10.43;;
33987;SDS011;37428;53.580;-1.666;2022-12-10T05:29:14;10.00;;;8.15;;
33987;SDS011;37428;53.580;-1.666;2022-12-10T05:32:18;10.38;;;7.88;;
33987;SDS011;37428;53.580;-1.666;2022-12-10T05:35:20;16.20;;;9.77;;
33987;SDS011;37428;53.580;-1.666;2022-12-10T05:38:22;31.50;;;14.65;;
33987;SDS011;37428;53.580;-1.666;2022-12-10T05:41:27;35.60;;;15.95;;
33987;SDS011;37428;53.580;-1.666;2022-12-10T05:44:30;28.02;;;12.77;;
33987;SDS011;37428;53.580;-1.666;2022-12-10T05:47:33;28.35;;;12.55;;
33987;SDS011;37428;53.580;-1.666;2022-12-10T05:50:43;16.42;;;10.35;;
33987;SDS011;37428;53.580;-1.666;2022-12-10T05:57:10;54.63;;;19.00;;
33987;SDS011;37428;53.580;-1.666;2022-12-10T06:00:12;25.38;;;11.85;;
33987;SDS011;37428;53.580;-1.666;2022-12-10T06:03:26;14.68;;;7.78;;
33987;SDS011;37428;53.580;-1.666;2022-12-10T06:06:29;12.15;;;6.38;;
33987;SDS011;37428;53.580;-1.666;2022-12-10T06:09:32;11.45;;;6.25;;
33987;SDS011;37428;53.580;-1.666;2022-12-10T06:12:36;11.23;;;5.93;;
33987;SDS011;37428;53.580;-1.666;2022-12-10T06:15:59;8.57;;;6.20;;
33987;SDS011;37428;53.580;-1.666;2022-12-10T06:19:05;12.10;;;7.88;;
33987;SDS011;37428;53.580;-1.666;2022-12-10T06:22:09;8.55;;;6.70;;
33987;SDS011;37428;53.580;-1.666;2022-12-10T06:25:11;6.40;;;5.30;;
33987;SDS011;37428;53.580;-1.666;2022-12-10T06:28:22;5.40;;;4.68;;
33987;SDS011;37428;53.580;-1.666;2022-12-10T06:31:25;4.50;;;3.38;;
33987;SDS011;37428;53.580;-1.666;2022-12-10T06:34:28;3.90;;;2.40;;
33987;SDS011;37428;53.580;-1.666;2022-12-10T06:37:44;3.10;;;2.80;;
33987;SDS011;37428;53.580;-1.666;2022-12-10T06:40:53;8.07;;;6.00;;
33987;SDS011;37428;53.580;-1.666;2022-12-10T06:44:21;4.90;;;3.97;;
33987;SDS011;37428;53.580;-1.666;2022-12-10T06:47:23;4.63;;;3.67;;
33987;SDS011;37428;53.580;-1.666;2022-12-10T06:50:26;3.28;;;3.03;;
33987;SDS011;37428;53.580;-1.666;2022-12-10T06:53:55;2.88;;;2.67;;
33987;SDS011;37428;53.580;-1.666;2022-12-10T06:57:00;2.97;;;2.78;;
33987;SDS011;37428;53.580;-1.666;2022-12-10T07:03:35;3.80;;;3.20;;
33987;SDS011;37428;53.580;-1.666;2022-12-10T07:06:48;4.03;;;3.67;;
33987;SDS011;37428;53.580;-1.666;2022-12-10T07:09:50;4.28;;;3.53;;
33987;SDS011;37428;53.580;-1.666;2022-12-10T07:12:52;4.03;;;3.63;;
33987;SDS011;37428;53.580;-1.666;2022-12-10T07:16:26;4.78;;;4.32;;
33987;SDS011;37428;53.580;-1.666;2022-12-10T07:19:29;5.55;;;5.05;;
33987;SDS011;37428;53.580;-1.666;2022-12-10T07:22:39;4.80;;;4.20;;
33987;SDS011;37428;53.580;-1.666;2022-12-10T07:25:41;7.07;;;4.95;;
33987;SDS011;37428;53.580;-1.666;2022-12-10T07:28:48;4.72;;;4.32;;
33987;SDS011;37428;53.580;-1.666;2022-12-10T07:31:52;5.18;;;4.68;;
33987;SDS011;37428;53.580;-1.666;2022-12-10T07:34:55;5.30;;;4.80;;
33987;SDS011;37428;53.580;-1.666;2022-12-10T07:38:24;5.43;;;4.93;;
33987;SDS011;37428;53.580;-1.666;2022-12-10T07:41:27;6.15;;;5.63;;
33987;SDS011;37428;53.580;-1.666;2022-12-10T07:44:30;6.25;;;5.50;;
33987;SDS011;37428;53.580;-1.666;2022-12-10T07:47:35;6.53;;;5.93;;
33987;SDS011;37428;53.580;-1.666;2022-12-10T07:50:40;6.55;;;5.88;;
33987;SDS011;37428;53.580;-1.666;2022-12-10T07:53:45;9.20;;;6.35;;
33987;SDS011;37428;53.580;-1.666;2022-12-10T07:56:53;7.53;;;6.63;;
33987;SDS011;37428;53.580;-1.666;2022-12-10T08:00:21;7.65;;;6.90;;
33987;SDS011;37428;53.580;-1.666;2022-12-10T08:03:25;6.80;;;5.75;;
33987;SDS011;37428;53.580;-1.666;2022-12-10T08:06:28;7.72;;;6.85;;
33987;SDS011;37428;53.580;-1.666;2022-12-10T08:09:31;6.18;;;5.57;;
33987;SDS011;37428;53.580;-1.666;2022-12-10T08:12:33;6.13;;;5.35;;
33987;SDS011;37428;53.580;-1.666;2022-12-10T08:15:35;6.63;;;6.00;;
33987;SDS011;37428;53.580;-1.666;2022-12-10T08:22:06;7.32;;;6.55;;
33987;SDS011;37428;53.580;-1.666;2022-12-10T08:25:18;7.88;;;6.32;;
33987;SDS011;37428;53.580;-1.666;2022-12-10T08:28:37;9.32;;;7.15;;
33987;SDS011;37428;53.580;-1.666;2022-12-10T08:31:43;8.82;;;7.88;;
33987;SDS011;37428;53.580;-1.666;2022-12-10T08:34:48;8.48;;;7.57;;
33987;SDS011;37428;53.580;-1.666;2022-12-10T08:37:55;13.68;;;10.20;;
33987;SDS011;37428;53.580;-1.666;2022-12-10T08:41:05;12.95;;;9.48;;
33987;SDS011;37428;53.580;-1.666;2022-12-10T08:44:09;11.68;;;7.50;;
33987;SDS011;37428;53.580;-1.666;2022-12-10T08:47:19;10.32;;;7.47;;
33987;SDS011;37428;53.580;-1.666;2022-12-10T08:50:25;7.80;;;6.65;;
33987;SDS011;37428;53.580;-1.666;2022-12-10T08:53:28;7.25;;;6.20;;
33987;SDS011;37428;53.580;-1.666;2022-12-10T08:59:35;7.28;;;5.78;;
33987;SDS011;37428;53.580;-1.666;2022-12-10T09:02:39;77.75;;;48.15;;
33987;SDS011;37428;53.580;-1.666;2022-12-10T09:05:43;17.80;;;12.77;;
33987;SDS011;37428;53.580;-1.666;2022-12-10T09:08:45;39.60;;;29.02;;
33987;SDS011;37428;53.580;-1.666;2022-12-10T09:11:48;25.83;;;18.02;;
33987;SDS011;37428;53.580;-1.666;2022-12-10T09:14:59;9.43;;;8.40;;
33987;SDS011;37428;53.580;-1.666;2022-12-10T09:18:01;17.17;;;14.70;;
33987;SDS011;37428;53.580;-1.666;2022-12-10T09:24:10;6.95;;;6.25;;
33987;SDS011;37428;53.580;-1.666;2022-12-10T09:27:12;7.90;;;6.72;;
33987;SDS011;37428;53.580;-1.666;2022-12-10T09:30:14;8.18;;;7.38;;
33987;SDS011;37428;53.580;-1.666;2022-12-10T09:33:17;8.07;;;6.90;;
33987;SDS011;37428;53.580;-1.666;2022-12-10T09:36:21;8.63;;;6.25;;
33987;SDS011;37428;53.580;-1.666;2022-12-10T09:39:23;6.20;;;5.60;;
33987;SDS011;37428;53.580;-1.666;2022-12-10T09:42:30;6.53;;;4.88;;
33987;SDS011;37428;53.580;-1.666;2022-12-10T09:45:49;6.65;;;4.95;;
33987;SDS011;37428;53.580;-1.666;2022-12-10T09:49:10;5.09;;;4.66;;
33987;SDS011;37428;53.580;-1.666;2022-12-10T09:52:21;4.72;;;4.22;;
33987;SDS011;37428;53.580;-1.666;2022-12-10T09:55:28;4.75;;;3.88;;
33987;SDS011;37428;53.580;-1.666;2022-12-10T09:58:34;6.70;;;5.78;;
33987;SDS011;37428;53.580;-1.666;2022-12-10T10:01:39;4.72;;;4.32;;
33987;SDS011;37428;53.580;-1.666;2022-12-10T10:07:45;8.60;;;7.70;;
33987;SDS011;37428;53.580;-1.666;2022-12-10T10:10:51;8.70;;;7.53;;
33987;SDS011;37428;53.580;-1.666;2022-12-10T10:17:07;8.48;;;6.80;;
33987;SDS011;37428;53.580;-1.666;2022-12-10T10:20:21;7.30;;;6.50;;
33987;SDS011;37428;53.580;-1.666;2022-12-10T10:23:25;7.28;;;6.55;;
33987;SDS011;37428;53.580;-1.666;2022-12-10T10:26:27;7.75;;;6.70;;
33987;SDS011;37428;53.580;-1.666;2022-12-10T10:29:29;6.40;;;5.80;;
33987;SDS011;37428;53.580;-1.666;2022-12-10T10:32:43;6.00;;;5.40;;
33987;SDS011;37428;53.580;-1.666;2022-12-10T10:35:50;5.78;;;4.13;;
33987;SDS011;37428;53.580;-1.666;2022-12-10T10:38:58;4.68;;;4.18;;
33987;SDS011;37428;53.580;-1.666;2022-12-10T10:42:09;9.43;;;7.80;;
33987;SDS011;37428;53.580;-1.666;2022-12-10T10:48:29;10.15;;;7.80;;
33987;SDS011;37428;53.580;-1.666;2022-12-10T10:54:44;2.00;;;1.90;;
33987;SDS011;37428;53.580;-1.666;2022-12-10T10:57:47;2.63;;;2.42;;
33987;SDS011;37428;53.580;-1.666;2022-12-10T11:00:54;3.92;;;2.45;;
33987;SDS011;37428;53.580;-1.666;2022-12-10T11:03:59;3.30;;;3.00;;
33987;SDS011;37428;53.580;-1.666;2022-12-10T11:07:01;3.42;;;3.03;;
33987;SDS011;37428;53.580;-1.666;2022-12-10T11:13:25;3.63;;;3.33;;
33987;SDS011;37428;53.580;-1.666;2022-12-10T11:16:29;3.97;;;3.60;;
33987;SDS011;37428;53.580;-1.666;2022-12-10T11:19:32;5.38;;;4.78;;
33987;SDS011;37428;53.580;-1.666;2022-12-10T11:25:46;4.60;;;3.80;;
33987;SDS011;37428;53.580;-1.666;2022-12-10T11:28:57;3.53;;;3.20;;
33987;SDS011;37428;53.580;-1.666;2022-12-10T11:32:14;5.28;;;4.68;;
33987;SDS011;37428;53.580;-1.666;2022-12-10T11:35:36;8.18;;;6.68;;
33987;SDS011;37428;53.580;-1.666;2022-12-10T11:38:47;7.95;;;7.15;;
33987;SDS011;37428;53.580;-1.666;2022-12-10T11:42:03;12.73;;;9.75;;
33987;SDS011;37428;53.580;-1.666;2022-12-10T11:45:12;9.73;;;8.73;;
33987;SDS011;37428;53.580;-1.666;2022-12-10T11:48:24;9.38;;;8.38;;
33987;SDS011;37428;53.580;-1.666;2022-12-10T11:51:35;8.98;;;7.70;;
33987;SDS011;37428;53.580;-1.666;2022-12-10T11:54:48;9.85;;;8.65;;
33987;SDS011;37428;53.580;-1.666;2022-12-10T11:58:05;9.45;;;8.45;;
33987;SDS011;37428;53.580;-1.666;2022-12-10T12:01:21;10.82;;;9.70;;
33987;SDS011;37428;53.580;-1.666;2022-12-10T12:04:44;10.88;;;8.93;;
33987;SDS011;37428;53.580;-1.666;2022-12-10T12:08:06;8.73;;;7.82;;
33987;SDS011;37428;53.580;-1.666;2022-12-10T12:11:25;8.55;;;6.90;;
33987;SDS011;37428;53.580;-1.666;2022-12-10T12:14:40;10.95;;;8.05;;
33987;SDS011;37428;53.580;-1.666;2022-12-10T12:17:48;9.25;;;8.23;;
33987;SDS011;37428;53.580;-1.666;2022-12-10T12:20:55;8.48;;;7.53;;
33987;SDS011;37428;53.580;-1.666;2022-12-10T12:24:01;8.57;;;7.38;;
33987;SDS011;37428;53.580;-1.666;2022-12-10T12:27:09;8.20;;;6.90;;
33987;SDS011;37428;53.580;-1.666;2022-12-10T12:30:20;10.32;;;7.30;;
33987;SDS011;37428;53.580;-1.666;2022-12-10T12:33:25;9.07;;;7.97;;
33987;SDS011;37428;53.580;-1.666;2022-12-10T12:36:44;8.77;;;7.75;;
33987;SDS011;37428;53.580;-1.666;2022-12-10T12:39:49;9.70;;;8.70;;
33987;SDS011;37428;53.580;-1.666;2022-12-10T12:43:04;9.88;;;8.65;;
33987;SDS011;37428;53.580;-1.666;2022-12-10T12:46:14;10.35;;;9.27;;
33987;SDS011;37428;53.580;-1.666;2022-12-10T12:49:22;14.55;;;10.23;;
33987;SDS011;37428;53.580;-1.666;2022-12-10T12:52:30;28.13;;;19.77;;
33987;SDS011;37428;53.580;-1.666;2022-12-10T12:55:43;26.25;;;17.25;;
33987;SDS011;37428;53.580;-1.666;2022-12-10T12:58:55;26.33;;;18.70;;
33987;SDS011;37428;53.580;-1.666;2022-12-10T13:02:11;21.58;;;14.90;;
33987;SDS011;37428;53.580;-1.666;2022-12-10T13:05:23;14.32;;;11.82;;
33987;SDS011;37428;53.580;-1.666;2022-12-10T13:08:29;18.55;;;13.38;;
33987;SDS011;37428;53.580;-1.666;2022-12-10T13:11:34;20.35;;;13.13;;
33987;SDS011;37428;53.580;-1.666;2022-12-10T13:14:41;15.18;;;12.68;;
33987;SDS011;37428;53.580;-1.666;2022-12-10T13:18:06;16.45;;;11.98;;
33987;SDS011;37428;53.580;-1.666;2022-12-10T13:21:29;18.85;;;12.88;;
33987;SDS011;37428;53.580;-1.666;2022-12-10T13:24:46;17.40;;;12.65;;
33987;SDS011;37428;53.580;-1.666;2022-12-10T13:28:16;17.75;;;11.30;;
33987;SDS011;37428;53.580;-1.666;2022-12-10T13:31:36;13.80;;;10.73;;
33987;SDS011;37428;53.580;-1.666;2022-12-10T13:37:53;14.50;;;11.55;;
33987;SDS011;37428;53.580;-1.666;2022-12-10T13:40:59;15.35;;;11.60;;
33987;SDS011;37428;53.580;-1.666;2022-12-10T13:44:26;14.85;;;10.80;;
33987;SDS011;37428;53.580;-1.666;2022-12-10T13:47:41;19.83;;;13.15;;
33987;SDS011;37428;53.580;-1.666;2022-12-10T13:50:48;20.38;;;13.50;;
33987;SDS011;37428;53.580;-1.666;2022-12-10T13:57:34;17.08;;;13.18;;
33987;SDS011;37428;53.580;-1.666;2022-12-10T14:00:53;19.80;;;14.88;;
33987;SDS011;37428;53.580;-1.666;2022-12-10T14:04:21;18.58;;;13.75;;
33987;SDS011;37428;53.580;-1.666;2022-12-10T14:07:51;20.42;;;13.43;;
33987;SDS011;37428;53.580;-1.666;2022-12-10T14:10:57;17.50;;;12.35;;
33987;SDS011;37428;53.580;-1.666;2022-12-10T14:14:09;18.92;;;13.07;;
33987;SDS011;37428;53.580;-1.666;2022-12-10T14:17:18;18.50;;;12.88;;
33987;SDS011;37428;53.580;-1.666;2022-12-10T14:20:45;17.95;;;12.57;;
33987;SDS011;37428;53.580;-1.666;2022-12-10T14:24:00;31.83;;;13.98;;
33987;SDS011;37428;53.580;-1.666;2022-12-10T14:27:36;23.35;;;13.23;;
33987;SDS011;37428;53.580;-1.666;2022-12-10T14:30:32;16.73;;;11.30;;
33987;SDS011;37428;53.580;-1.666;2022-12-10T14:33:34;19.08;;;11.70;;
33987;SDS011;37428;53.580;-1.666;2022-12-10T14:36:39;15.93;;;11.05;;
33987;SDS011;37428;53.580;-1.666;2022-12-10T14:39:49;35.35;;;14.52;;
33987;SDS011;37428;53.580;-1.666;2022-12-10T14:42:52;23.58;;;14.02;;
33987;SDS011;37428;53.580;-1.666;2022-12-10T14:46:02;19.55;;;13.07;;
33987;SDS011;37428;53.580;-1.666;2022-12-10T14:49:07;15.52;;;11.98;;
33987;SDS011;37428;53.580;-1.666;2022-12-10T14:52:16;16.25;;;11.85;;
33987;SDS011;37428;53.580;-1.666;2022-12-10T14:55:21;14.40;;;11.50;;
33987;SDS011;37428;53.580;-1.666;2022-12-10T14:58:27;15.38;;;11.73;;
33987;SDS011;37428;53.580;-1.666;2022-12-10T15:01:36;16.83;;;12.10;;
33987;SDS011;37428;53.580;-1.666;2022-12-10T15:04:43;24.30;;;16.80;;
33987;SDS011;37428;53.580;-1.666;2022-12-10T15:07:49;25.38;;;17.45;;
33987;SDS011;37428;53.580;-1.666;2022-12-10T15:10:57;24.02;;;17.48;;
33987;SDS011;37428;53.580;-1.666;2022-12-10T15:14:04;22.67;;;15.25;;
33987;SDS011;37428;53.580;-1.666;2022-12-10T15:20:45;35.58;;;22.70;;
33987;SDS011;37428;53.580;-1.666;2022-12-10T15:23:49;34.42;;;23.77;;
33987;SDS011;37428;53.580;-1.666;2022-12-10T15:26:53;32.67;;;21.15;;
33987;SDS011;37428;53.580;-1.666;2022-12-10T15:29:56;29.30;;;20.65;;
33987;SDS011;37428;53.580;-1.666;2022-12-10T15:32:58;23.95;;;17.77;;
33987;SDS011;37428;53.580;-1.666;2022-12-10T15:36:01;23.63;;;17.38;;
33987;SDS011;37428;53.580;-1.666;2022-12-10T15:39:05;18.95;;;13.82;;
33987;SDS011;37428;53.580;-1.666;2022-12-10T15:42:31;19.65;;;13.85;;
33987;SDS011;37428;53.580;-1.666;2022-12-10T15:45:41;19.40;;;13.88;;
33987;SDS011;37428;53.580;-1.666;2022-12-10T15:48:47;25.25;;;15.48;;
33987;SDS011;37428;53.580;-1.666;2022-12-10T15:51:53;21.15;;;15.98;;
33987;SDS011;37428;53.580;-1.666;2022-12-10T15:55:12;77.55;;;37.75;;
33987;SDS011;37428;53.580;-1.666;2022-12-10T15:58:17;33.97;;;20.52;;
33987;SDS011;37428;53.580;-1.666;2022-12-10T16:01:20;28.17;;;19.13;;
33987;SDS011;37428;53.580;-1.666;2022-12-10T16:04:27;24.17;;;16.65;;
33987;SDS011;37428;53.580;-1.666;2022-12-10T16:07:30;29.23;;;18.10;;
33987;SDS011;37428;53.580;-1.666;2022-12-10T16:10:44;29.95;;;19.48;;
33987;SDS011;37428;53.580;-1.666;2022-12-10T16:13:51;24.30;;;17.63;;
33987;SDS011;37428;53.580;-1.666;2022-12-10T16:16:56;27.13;;;18.55;;
33987;SDS011;37428;53.580;-1.666;2022-12-10T16:19:58;28.33;;;19.42;;
33987;SDS011;37428;53.580;-1.666;2022-12-10T16:23:07;30.38;;;18.77;;
33987;SDS011;37428;53.580;-1.666;2022-12-10T16:26:12;29.75;;;20.98;;
33987;SDS011;37428;53.580;-1.666;2022-12-10T16:29:18;29.77;;;20.67;;
33987;SDS011;37428;53.580;-1.666;2022-12-10T16:32:21;34.17;;;20.05;;
33987;SDS011;37428;53.580;-1.666;2022-12-10T16:35:26;24.05;;;17.73;;
33987;SDS011;37428;53.580;-1.666;2022-12-10T16:38:29;30.15;;;19.83;;
33987;SDS011;37428;53.580;-1.666;2022-12-10T16:41:32;28.55;;;19.88;;
33987;SDS011;37428;53.580;-1.666;2022-12-10T16:44:36;27.50;;;17.83;;
33987;SDS011;37428;53.580;-1.666;2022-12-10T16:47:46;32.92;;;23.67;;
33987;SDS011;37428;53.580;-1.666;2022-12-10T16:50:51;38.55;;;26.92;;
33987;SDS011;37428;53.580;-1.666;2022-12-10T16:54:07;45.63;;;29.38;;
33987;SDS011;37428;53.580;-1.666;2022-12-10T16:57:13;51.67;;;36.28;;
33987;SDS011;37428;53.580;-1.666;2022-12-10T17:00:19;77.97;;;45.13;;
33987;SDS011;37428;53.580;-1.666;2022-12-10T17:03:30;33.88;;;22.65;;
33987;SDS011;37428;53.580;-1.666;2022-12-10T17:06:32;30.30;;;21.40;;
33987;SDS011;37428;53.580;-1.666;2022-12-10T17:09:36;32.95;;;23.02;;
33987;SDS011;37428;53.580;-1.666;2022-12-10T17:12:39;32.55;;;22.55;;
33987;SDS011;37428;53.580;-1.666;2022-12-10T17:15:44;35.75;;;22.10;;
33987;SDS011;37428;53.580;-1.666;2022-12-10T17:18:46;43.30;;;27.80;;
33987;SDS011;37428;53.580;-1.666;2022-12-10T17:21:52;38.38;;;26.77;;
33987;SDS011;37428;53.580;-1.666;2022-12-10T17:24:55;39.10;;;25.48;;
33987;SDS011;37428;53.580;-1.666;2022-12-10T17:27:57;38.85;;;26.05;;
33987;SDS011;37428;53.580;-1.666;2022-12-10T17:31:01;42.63;;;27.60;;
33987;SDS011;37428;53.580;-1.666;2022-12-10T17:34:04;39.90;;;25.08;;
33987;SDS011;37428;53.580;-1.666;2022-12-10T17:37:14;35.05;;;23.95;;
33987;SDS011;37428;53.580;-1.666;2022-12-10T17:40:26;37.05;;;24.38;;
33987;SDS011;37428;53.580;-1.666;2022-12-10T17:43:38;44.70;;;29.80;;
33987;SDS011;37428;53.580;-1.666;2022-12-10T17:46:47;39.30;;;25.80;;
33987;SDS011;37428;53.580;-1.666;2022-12-10T17:49:52;49.22;;;31.23;;
33987;SDS011;37428;53.580;-1.666;2022-12-10T17:52:55;57.97;;;39.78;;
33987;SDS011;37428;53.580;-1.666;2022-12-10T17:55:58;49.28;;;31.92;;
33987;SDS011;37428;53.580;-1.666;2022-12-10T17:59:01;47.63;;;31.17;;
33987;SDS011;37428;53.580;-1.666;2022-12-10T18:02:07;44.78;;;30.55;;
33987;SDS011;37428;53.580;-1.666;2022-12-10T18:05:11;49.22;;;31.17;;
33987;SDS011;37428;53.580;-1.666;2022-12-10T18:08:13;46.10;;;28.67;;
33987;SDS011;37428;53.580;-1.666;2022-12-10T18:11:19;40.92;;;27.33;;
33987;SDS011;37428;53.580;-1.666;2022-12-10T18:14:23;38.38;;;25.40;;
33987;SDS011;37428;53.580;-1.666;2022-12-10T18:17:27;46.58;;;28.48;;
33987;SDS011;37428;53.580;-1.666;2022-12-10T18:20:30;40.95;;;27.67;;
33987;SDS011;37428;53.580;-1.666;2022-12-10T18:23:35;45.78;;;28.73;;
33987;SDS011;37428;53.580;-1.666;2022-12-10T18:26:38;42.85;;;28.20;;
33987;SDS011;37428;53.580;-1.666;2022-12-10T18:32:44;70.22;;;41.85;;
33987;SDS011;37428;53.580;-1.666;2022-12-10T18:35:46;59.35;;;38.20;;
33987;SDS011;37428;53.580;-1.666;2022-12-10T18:38:55;52.53;;;32.83;;
33987;SDS011;37428;53.580;-1.666;2022-12-10T18:42:00;49.03;;;31.73;;
33987;SDS011;37428;53.580;-1.666;2022-12-10T18:45:10;50.65;;;30.50;;
33987;SDS011;37428;53.580;-1.666;2022-12-10T18:48:16;52.05;;;32.22;;
33987;SDS011;37428;53.580;-1.666;2022-12-10T18:51:19;50.90;;;31.92;;
33987;SDS011;37428;53.580;-1.666;2022-12-10T18:54:24;50.60;;;32.05;;
33987;SDS011;37428;53.580;-1.666;2022-12-10T18:57:32;44.38;;;28.58;;
33987;SDS011;37428;53.580;-1.666;2022-12-10T19:00:34;46.70;;;31.45;;
33987;SDS011;37428;53.580;-1.666;2022-12-10T19:03:51;50.75;;;33.85;;
33987;SDS011;37428;53.580;-1.666;2022-12-10T19:06:54;40.83;;;28.45;;
33987;SDS011;37428;53.580;-1.666;2022-12-10T19:09:56;43.13;;;25.67;;
33987;SDS011;37428;53.580;-1.666;2022-12-10T19:12:58;42.22;;;28.10;;
33987;SDS011;37428;53.580;-1.666;2022-12-10T19:16:08;39.92;;;26.20;;
33987;SDS011;37428;53.580;-1.666;2022-12-10T19:19:25;43.08;;;27.83;;
33987;SDS011;37428;53.580;-1.666;2022-12-10T19:22:43;55.53;;;35.67;;
33987;SDS011;37428;53.580;-1.666;2022-12-10T19:26:05;40.47;;;28.38;;
33987;SDS011;37428;53.580;-1.666;2022-12-10T19:29:23;43.40;;;28.00;;